Time;durP1;ratioP1;P1;durP2;ratioP2;P2;SDS_P1;SDS_P2;PMS_P1;PMS_P2;Temp;Humidity;BMP_temperature;BMP_pressure;BME280_temperature;BME280_humidity;BME280_pressure;Samples;Min_cycle;Max_cycle;Signal;HPM_P1;HPM_P2
2022/10/08 00:00:49;;;;;;;18.00;13.05;;;13.40;99.90;;;;;;5017534;28;20221;-73
2022/10/08 00:03:40;;;;;;;18.45;13.48;;;13.30;99.90;;;;;;5018921;28;20304;-73
2022/10/08 00:06:31;;;;;;;19.33;13.10;;;13.30;99.90;;;;;;5007981;28;20261;-74
2022/10/08 00:09:19;;;;;;;18.90;13.73;;;13.30;99.90;;;;;;5014377;28;20839;-73
2022/10/08 00:12:09;;;;;;;21.15;13.20;;;13.20;99.90;;;;;;5015043;28;20221;-73
2022/10/08 00:14:58;;;;;;;23.60;14.48;;;13.20;99.90;;;;;;5008932;28;20718;-73
2022/10/08 00:17:47;;;;;;;21.98;13.38;;;13.20;99.90;;;;;;5013146;28;20296;-73
2022/10/08 00:20:36;;;;;;;18.83;14.25;;;13.20;99.90;;;;;;5011476;28;20258;-73
2022/10/08 00:23:25;;;;;;;17.90;13.00;;;13.10;99.90;;;;;;5018568;28;20235;-72
2022/10/08 00:26:14;;;;;;;18.80;12.73;;;13.10;99.90;;;;;;5009126;28;20707;-72
2022/10/08 00:29:06;;;;;;;20.75;13.95;;;13.10;99.90;;;;;;5019859;28;20249;-73
2022/10/08 00:31:55;;;;;;;18.50;13.18;;;13.20;99.90;;;;;;5007738;28;20351;-77
2022/10/08 00:34:44;;;;;;;18.70;12.90;;;13.20;99.90;;;;;;5017177;28;20261;-77
2022/10/08 00:37:33;;;;;;;20.60;13.40;;;13.20;99.90;;;;;;5002695;28;20269;-77
2022/10/08 00:40:21;;;;;;;19.95;13.77;;;13.00;99.90;;;;;;5013678;28;21015;-77
2022/10/08 00:43:14;;;;;;;17.65;13.25;;;13.00;99.90;;;;;;5020516;28;20225;-76
2022/10/08 00:46:05;;;;;;;17.63;13.13;;;13.00;99.90;;;;;;5003528;28;21415;-73
2022/10/08 00:49:15;;;;;;;19.75;13.77;;;12.90;99.90;;;;;;5022283;28;20711;-73
2022/10/08 00:52:04;;;;;;;21.92;13.55;;;12.80;99.90;;;;;;5016510;28;20312;-74
2022/10/08 00:54:52;;;;;;;20.13;13.77;;;12.80;99.90;;;;;;5018361;28;20313;-73
2022/10/08 00:57:42;;;;;;;17.30;13.32;;;12.80;99.90;;;;;;5011733;28;20226;-73
2022/10/08 01:00:31;;;;;;;19.42;13.52;;;12.90;99.90;;;;;;5017913;28;20234;-74
2022/10/08 01:03:22;;;;;;;20.27;13.02;;;12.90;99.90;;;;;;5027346;28;20313;-74
2022/10/08 01:06:21;;;;;;;20.10;13.82;;;12.90;99.90;;;;;;5002698;28;20271;-73
2022/10/08 01:09:14;;;;;;;20.98;13.60;;;12.90;99.90;;;;;;5018712;28;20221;-73
2022/10/08 01:12:15;;;;;;;18.60;13.38;;;13.00;99.90;;;;;;5014698;28;20268;-73
2022/10/08 01:15:12;;;;;;;24.40;13.50;;;13.00;99.90;;;;;;5013733;28;20289;-73
2022/10/08 01:18:09;;;;;;;16.63;12.57;;;12.90;99.90;;;;;;5017275;28;20222;-72
2022/10/08 01:21:08;;;;;;;19.48;12.95;;;13.00;99.90;;;;;;5011216;28;20688;-74
2022/10/08 01:24:21;;;;;;;16.15;12.30;;;13.00;99.90;;;;;;5015621;28;20222;-73
2022/10/08 01:27:20;;;;;;;18.42;12.55;;;12.90;99.90;;;;;;5010947;28;20300;-74
2022/10/08 01:30:13;;;;;;;16.92;12.00;;;12.80;99.90;;;;;;5003506;28;20226;-73
2022/10/08 01:33:11;;;;;;;18.27;11.95;;;12.90;99.90;;;;;;5015428;28;20343;-73
2022/10/08 01:36:04;;;;;;;19.55;11.75;;;13.00;99.90;;;;;;5020694;28;20660;-72
2022/10/08 01:38:56;;;;;;;18.83;12.77;;;13.00;99.90;;;;;;5017673;28;20229;-73
2022/10/08 01:41:49;;;;;;;16.10;12.23;;;13.00;99.90;;;;;;5004075;28;20265;-72
2022/10/08 01:44:41;;;;;;;15.55;11.52;;;13.00;99.90;;;;;;5011416;28;20368;-73
2022/10/08 01:47:31;;;;;;;14.80;11.82;;;12.90;99.90;;;;;;5005485;28;20650;-73
2022/10/08 01:50:24;;;;;;;19.20;12.77;;;13.00;99.90;;;;;;5014139;28;20273;-73
2022/10/08 01:53:15;;;;;;;17.23;11.63;;;13.00;99.90;;;;;;5000626;28;20221;-73
2022/10/08 01:56:09;;;;;;;16.23;12.05;;;13.10;99.90;;;;;;5014173;28;20248;-72
2022/10/08 01:59:03;;;;;;;19.98;12.95;;;13.00;99.90;;;;;;5009926;28;20285;-72
2022/10/08 02:02:00;;;;;;;17.92;11.95;;;13.00;99.90;;;;;;5013942;28;20230;-73
2022/10/08 02:04:50;;;;;;;16.02;12.10;;;13.00;99.90;;;;;;5014283;28;20214;-72
2022/10/08 02:07:41;;;;;;;15.65;12.00;;;12.90;99.90;;;;;;5011848;28;20305;-73
2022/10/08 02:10:30;;;;;;;16.15;12.38;;;13.00;99.90;;;;;;5015462;28;20274;-73
2022/10/08 02:13:20;;;;;;;17.23;12.13;;;13.10;99.90;;;;;;5014819;28;20254;-74
2022/10/08 02:16:16;;;;;;;15.10;11.63;;;13.00;99.90;;;;;;5016915;28;20257;-73
2022/10/08 02:19:09;;;;;;;17.17;11.70;;;13.10;99.90;;;;;;5005509;28;20241;-74
2022/10/08 02:22:01;;;;;;;19.05;11.85;;;13.00;99.90;;;;;;4990395;28;20721;-73
2022/10/08 02:24:54;;;;;;;16.85;11.73;;;13.10;99.90;;;;;;5011670;28;20296;-74
2022/10/08 02:27:52;;;;;;;16.25;11.98;;;13.10;99.90;;;;;;5001332;28;20223;-73
2022/10/08 02:30:47;;;;;;;17.23;11.23;;;13.10;99.90;;;;;;5011621;28;20220;-73
2022/10/08 02:33:40;;;;;;;15.13;11.88;;;13.10;99.90;;;;;;5004290;28;20620;-73
2022/10/08 02:36:35;;;;;;;17.45;12.02;;;13.10;99.90;;;;;;5013443;28;20711;-73
2022/10/08 02:39:27;;;;;;;17.77;12.18;;;13.20;99.90;;;;;;5014738;28;20270;-73
2022/10/08 02:42:20;;;;;;;18.17;12.65;;;13.20;99.90;;;;;;5009413;28;20300;-73
2022/10/08 02:45:14;;;;;;;15.73;11.25;;;13.20;99.90;;;;;;5016752;28;20229;-76
2022/10/08 02:48:08;;;;;;;15.07;11.20;;;13.20;99.90;;;;;;5013837;28;20225;-77
2022/10/08 02:50:59;;;;;;;16.45;12.25;;;13.30;99.90;;;;;;5014970;28;20716;-73
2022/10/08 02:53:49;;;;;;;16.45;11.93;;;13.10;99.90;;;;;;5014949;28;20789;-74
2022/10/08 02:56:45;;;;;;;19.50;12.20;;;13.10;99.90;;;;;;5017526;28;20225;-76
2022/10/08 02:59:34;;;;;;;21.88;12.95;;;13.10;99.90;;;;;;5004043;28;20233;-74
2022/10/08 03:02:29;;;;;;;19.85;12.60;;;13.10;99.90;;;;;;5011924;28;20656;-73
2022/10/08 03:05:20;;;;;;;20.73;12.95;;;13.10;99.90;;;;;;5016442;28;20726;-72
2022/10/08 03:08:13;;;;;;;15.00;11.30;;;13.00;99.90;;;;;;5017121;28;20218;-72
2022/10/08 03:11:05;;;;;;;19.30;13.07;;;13.00;99.90;;;;;;5028491;28;20360;-73
2022/10/08 03:13:57;;;;;;;18.20;12.23;;;13.00;99.90;;;;;;5018815;28;20576;-73
2022/10/08 03:16:46;;;;;;;17.80;12.73;;;13.00;99.90;;;;;;5014168;28;20708;-73
2022/10/08 03:19:35;;;;;;;14.77;12.48;;;13.10;99.90;;;;;;5016186;28;20365;-73
2022/10/08 03:22:25;;;;;;;21.80;12.82;;;13.00;99.90;;;;;;5003742;28;20298;-73
2022/10/08 03:25:13;;;;;;;15.93;13.13;;;13.00;99.90;;;;;;5029908;28;20226;-73
2022/10/08 03:28:03;;;;;;;17.02;12.45;;;13.00;99.90;;;;;;5014109;28;20685;-73
2022/10/08 03:30:52;;;;;;;17.90;13.48;;;13.00;99.90;;;;;;5015771;28;20273;-74
2022/10/08 03:33:41;;;;;;;18.20;13.40;;;13.00;99.90;;;;;;5013760;28;20219;-74
2022/10/08 03:36:30;;;;;;;21.73;14.10;;;13.00;99.90;;;;;;5018091;28;20229;-74
2022/10/08 03:39:19;;;;;;;14.23;12.73;;;12.90;99.90;;;;;;5017982;28;20352;-73
2022/10/08 03:42:08;;;;;;;17.42;13.50;;;12.90;99.90;;;;;;5008637;28;20232;-73
2022/10/08 03:45:00;;;;;;;16.17;12.55;;;13.00;99.90;;;;;;5018949;28;20221;-73
2022/10/08 03:47:51;;;;;;;19.45;13.48;;;13.00;99.90;;;;;;5004358;28;20234;-73
2022/10/08 03:50:40;;;;;;;18.83;13.40;;;13.10;99.90;;;;;;5015005;28;20835;-73
2022/10/08 03:53:32;;;;;;;21.00;13.70;;;13.10;99.90;;;;;;5009246;28;20229;-74
2022/10/08 03:56:23;;;;;;;17.27;13.68;;;13.10;99.90;;;;;;5015203;28;20596;-74
2022/10/08 03:59:12;;;;;;;20.35;14.18;;;13.10;99.90;;;;;;5028317;28;20250;-74
2022/10/08 04:02:02;;;;;;;21.23;13.98;;;13.10;99.90;;;;;;5030917;28;20236;-73
2022/10/08 04:04:51;;;;;;;17.92;13.63;;;13.10;99.90;;;;;;5016882;28;20257;-74
2022/10/08 04:07:40;;;;;;;16.23;12.40;;;13.10;99.90;;;;;;5011541;28;20222;-73
2022/10/08 04:10:28;;;;;;;18.05;13.52;;;13.10;99.90;;;;;;5005037;28;20280;-73
2022/10/08 04:13:17;;;;;;;18.52;14.00;;;13.10;99.90;;;;;;5014312;28;20265;-73
2022/10/08 04:16:09;;;;;;;17.08;13.88;;;13.10;99.90;;;;;;5016065;28;20224;-72
2022/10/08 04:18:59;;;;;;;23.90;14.65;;;13.20;99.90;;;;;;5014995;28;20222;-76
2022/10/08 04:21:47;;;;;;;17.33;14.02;;;13.20;99.90;;;;;;5015455;28;20248;-76
2022/10/08 04:24:36;;;;;;;18.42;14.05;;;13.20;99.90;;;;;;5016133;28;20283;-77
2022/10/08 04:27:24;;;;;;;19.13;13.88;;;13.20;99.90;;;;;;5005744;28;20304;-77
2022/10/08 04:30:13;;;;;;;16.77;13.73;;;13.30;99.90;;;;;;5003302;28;20237;-76
2022/10/08 04:33:02;;;;;;;17.63;13.88;;;13.30;99.90;;;;;;5014883;28;20222;-76
2022/10/08 04:35:52;;;;;;;21.00;14.85;;;13.30;99.90;;;;;;5002311;28;20580;-76
2022/10/08 04:38:48;;;;;;;15.93;13.88;;;13.30;99.90;;;;;;5016990;28;20230;-77
2022/10/08 04:41:37;;;;;;;23.25;14.82;;;13.40;99.90;;;;;;5019321;28;20222;-77
2022/10/08 04:44:25;;;;;;;19.33;14.52;;;13.30;99.90;;;;;;5016454;28;20311;-78
2022/10/08 04:47:14;;;;;;;20.33;14.38;;;13.40;99.90;;;;;;5003196;28;20298;-78
2022/10/08 04:50:03;;;;;;;17.98;14.65;;;13.30;99.90;;;;;;5017883;28;20271;-77
2022/10/08 04:52:53;;;;;;;19.77;13.70;;;13.30;99.90;;;;;;5020845;28;20335;-77
2022/10/08 04:55:41;;;;;;;16.95;13.88;;;13.30;99.90;;;;;;5018503;28;20229;-76
2022/10/08 04:58:30;;;;;;;20.83;15.07;;;13.30;99.90;;;;;;5016019;28;20226;-75
2022/10/08 05:01:20;;;;;;;19.80;14.43;;;13.40;99.90;;;;;;5019444;28;20221;-75
2022/10/08 05:04:09;;;;;;;19.40;14.98;;;13.40;99.90;;;;;;5016395;28;20241;-75
2022/10/08 05:06:57;;;;;;;24.52;15.45;;;13.40;99.90;;;;;;5015846;28;20309;-73
2022/10/08 05:09:48;;;;;;;17.45;14.23;;;13.40;99.90;;;;;;5010061;28;20608;-73
2022/10/08 05:12:36;;;;;;;19.33;14.88;;;13.40;99.90;;;;;;5016749;28;20238;-73
2022/10/08 05:15:25;;;;;;;19.77;14.98;;;13.40;99.90;;;;;;5022859;28;20225;-74
2022/10/08 05:18:13;;;;;;;20.63;14.52;;;13.40;99.90;;;;;;5014042;28;20680;-73
2022/10/08 05:21:04;;;;;;;21.13;14.65;;;13.40;99.90;;;;;;5020643;28;20220;-77
2022/10/08 05:23:56;;;;;;;22.15;14.70;;;13.50;99.90;;;;;;5011664;28;20234;-75
2022/10/08 05:26:46;;;;;;;22.95;14.60;;;13.50;99.90;;;;;;5012115;28;20613;-75
2022/10/08 05:29:46;;;;;;;19.20;14.65;;;13.50;99.90;;;;;;5015167;28;20315;-75
2022/10/08 05:32:34;;;;;;;20.38;15.65;;;13.50;99.90;;;;;;4999600;28;20226;-75
2022/10/08 05:35:23;;;;;;;17.45;14.50;;;13.50;99.90;;;;;;5013204;28;20249;-75
2022/10/08 05:38:12;;;;;;;22.95;16.75;;;13.50;99.90;;;;;;5026837;28;20376;-74
2022/10/08 05:41:12;;;;;;;18.10;15.15;;;13.50;99.90;;;;;;5003439;28;20229;-74
2022/10/08 05:44:02;;;;;;;19.20;15.15;;;13.50;99.90;;;;;;4999467;28;20229;-75
2022/10/08 05:46:51;;;;;;;20.92;15.55;;;13.50;99.90;;;;;;5005212;28;20252;-75
2022/10/08 05:49:39;;;;;;;19.83;14.77;;;13.60;99.90;;;;;;5015613;28;20226;-74
2022/10/08 05:52:28;;;;;;;19.05;15.80;;;13.60;99.90;;;;;;5003151;28;20353;-76
2022/10/08 05:55:17;;;;;;;19.85;15.07;;;13.60;99.90;;;;;;5011785;28;20276;-75
2022/10/08 05:58:05;;;;;;;20.40;15.63;;;13.60;99.90;;;;;;5012290;28;20696;-75
2022/10/08 06:00:59;;;;;;;18.58;14.88;;;13.70;99.90;;;;;;4999635;28;20304;-75
2022/10/08 06:03:51;;;;;;;21.20;15.80;;;13.80;99.90;;;;;;5012633;28;20224;-75
2022/10/08 06:06:42;;;;;;;18.45;14.82;;;13.90;99.90;;;;;;5011430;28;20229;-74
2022/10/08 06:09:30;;;;;;;22.30;15.63;;;14.00;99.90;;;;;;5013503;28;20225;-74
2022/10/08 06:12:19;;;;;;;23.08;15.32;;;14.20;99.90;;;;;;5016324;28;20233;-75
2022/10/08 06:15:08;;;;;;;20.73;15.82;;;14.30;99.90;;;;;;5008054;28;20614;-75
2022/10/08 06:18:00;;;;;;;20.17;16.05;;;14.30;99.90;;;;;;5012793;28;20229;-76
2022/10/08 06:20:49;;;;;;;20.05;14.85;;;14.40;99.90;;;;;;5021943;28;20328;-74
2022/10/08 06:23:39;;;;;;;23.38;15.23;;;14.40;99.90;;;;;;5002981;28;20335;-74
2022/10/08 06:26:31;;;;;;;17.92;14.85;;;14.50;99.90;;;;;;5013462;28;20305;-74
2022/10/08 06:29:23;;;;;;;19.27;14.73;;;14.50;99.90;;;;;;4994918;28;20225;-74
2022/10/08 06:32:11;;;;;;;20.00;15.10;;;14.50;99.90;;;;;;5008455;28;20696;-75
2022/10/08 06:35:02;;;;;;;23.65;15.70;;;14.60;99.90;;;;;;5019255;28;20260;-74
2022/10/08 06:37:50;;;;;;;22.50;14.98;;;14.70;99.90;;;;;;5015061;28;20218;-74
2022/10/08 06:40:39;;;;;;;18.73;14.90;;;14.80;99.90;;;;;;5008114;28;20257;-74
2022/10/08 06:43:28;;;;;;;22.88;15.23;;;14.80;99.90;;;;;;5006559;28;20222;-72
2022/10/08 06:46:17;;;;;;;23.63;15.48;;;14.80;99.90;;;;;;5017814;28;20242;-75
2022/10/08 06:49:06;;;;;;;24.17;15.60;;;14.90;99.90;;;;;;5013972;28;20924;-74
2022/10/08 06:51:56;;;;;;;24.13;15.98;;;14.90;99.90;;;;;;5027859;28;20213;-74
2022/10/08 06:54:45;;;;;;;25.02;15.25;;;14.90;99.90;;;;;;5016515;28;20308;-75
2022/10/08 06:57:34;;;;;;;22.90;14.45;;;15.00;99.90;;;;;;5019513;28;20979;-75
2022/10/08 07:00:22;;;;;;;27.75;14.98;;;15.00;99.90;;;;;;5008995;28;20221;-75
2022/10/08 07:03:11;;;;;;;24.85;14.70;;;15.00;99.90;;;;;;5017522;28;20317;-76
2022/10/08 07:06:01;;;;;;;22.05;15.23;;;15.00;99.90;;;;;;5017559;28;20225;-76
2022/10/08 07:08:54;;;;;;;25.45;15.63;;;15.00;99.90;;;;;;5021970;28;20239;-75
2022/10/08 07:11:42;;;;;;;19.85;15.15;;;15.00;99.90;;;;;;5015193;28;20228;-75
2022/10/08 07:14:31;;;;;;;20.38;15.35;;;15.10;99.90;;;;;;5020246;28;20249;-76
2022/10/08 07:17:19;;;;;;;17.10;14.90;;;15.10;99.90;;;;;;5014151;28;20553;-75
2022/10/08 07:20:08;;;;;;;22.55;15.02;;;15.20;99.90;;;;;;5013089;28;20385;-75
2022/10/08 07:22:57;;;;;;;20.13;14.82;;;15.20;99.90;;;;;;5009443;28;20305;-75
2022/10/08 07:25:57;;;;;;;27.40;15.27;;;15.20;99.90;;;;;;5017303;28;20244;-75
2022/10/08 07:28:50;;;;;;;20.92;15.52;;;15.30;99.90;;;;;;5011125;28;20369;-75
2022/10/08 07:31:39;;;;;;;19.10;15.50;;;15.30;99.90;;;;;;5019834;28;20317;-75
2022/10/08 07:34:28;;;;;;;21.42;15.60;;;15.40;99.90;;;;;;5021570;28;20222;-80
2022/10/08 07:37:17;;;;;;;19.05;15.35;;;15.40;99.90;;;;;;5027069;28;20228;-75
2022/10/08 07:40:07;;;;;;;19.73;16.33;;;15.40;99.90;;;;;;5013153;28;20244;-80
2022/10/08 07:42:57;;;;;;;20.40;15.05;;;15.40;99.90;;;;;;5005295;28;20565;-79
2022/10/08 07:45:46;;;;;;;23.17;15.80;;;15.40;99.90;;;;;;5011655;28;20222;-78
2022/10/08 07:48:36;;;;;;;21.33;15.25;;;15.50;99.90;;;;;;5010719;28;20240;-75
2022/10/08 07:51:25;;;;;;;20.70;14.82;;;15.60;99.90;;;;;;5013465;28;20311;-75
2022/10/08 07:54:15;;;;;;;25.90;14.25;;;15.70;99.90;;;;;;5012693;28;20232;-75
2022/10/08 07:57:04;;;;;;;19.73;14.27;;;15.80;99.90;;;;;;5016706;28;20280;-76
2022/10/08 07:59:54;;;;;;;17.10;14.75;;;15.80;99.90;;;;;;5013175;28;20222;-72
2022/10/08 08:02:43;;;;;;;18.98;14.27;;;15.90;99.90;;;;;;5004546;28;20248;-74
2022/10/08 08:05:33;;;;;;;19.00;14.27;;;16.00;99.90;;;;;;5016474;28;20613;-74
2022/10/08 08:08:23;;;;;;;22.10;14.80;;;16.20;99.90;;;;;;5003351;28;20226;-72
2022/10/08 08:11:14;;;;;;;19.23;14.15;;;16.30;99.90;;;;;;5016451;28;20210;-72
2022/10/08 08:14:02;;;;;;;16.63;13.65;;;16.50;99.90;;;;;;5014577;28;20230;-72
2022/10/08 08:16:52;;;;;;;20.85;14.60;;;16.60;99.90;;;;;;5003111;28;20215;-75
2022/10/08 08:19:41;;;;;;;17.40;13.88;;;16.70;99.90;;;;;;5003517;28;20225;-77
2022/10/08 08:22:30;;;;;;;17.13;12.93;;;16.70;99.90;;;;;;5015019;28;20233;-75
2022/10/08 08:25:18;;;;;;;18.23;13.43;;;16.70;99.90;;;;;;5016560;28;20218;-75
2022/10/08 08:28:07;;;;;;;21.88;14.07;;;16.60;99.90;;;;;;5012998;28;20306;-75
2022/10/08 08:30:56;;;;;;;18.88;13.63;;;16.70;99.90;;;;;;5015381;28;20228;-75
2022/10/08 08:33:50;;;;;;;19.05;12.70;;;16.80;99.90;;;;;;5008089;28;20705;-74
2022/10/08 08:36:40;;;;;;;21.88;13.50;;;17.00;99.90;;;;;;5004067;28;20287;-74
2022/10/08 08:39:30;;;;;;;29.17;13.40;;;17.10;99.90;;;;;;5002547;28;20233;-75
2022/10/08 08:42:39;;;;;;;18.13;12.75;;;17.30;99.90;;;;;;5014921;28;20276;-75
2022/10/08 08:45:31;;;;;;;15.15;12.20;;;17.40;99.90;;;;;;5002767;28;20677;-75
2022/10/08 08:48:37;;;;;;;17.35;11.95;;;18.00;99.90;;;;;;5012224;28;20701;-75
2022/10/08 08:51:28;;;;;;;18.13;12.15;;;18.30;99.90;;;;;;5013964;28;20237;-75
2022/10/08 08:54:16;;;;;;;19.52;11.45;;;18.10;99.90;;;;;;5012251;28;20312;-75
2022/10/08 08:57:17;;;;;;;18.77;11.63;;;18.00;99.90;;;;;;5001833;28;20811;-72
2022/10/08 09:00:13;;;;;;;15.32;11.70;;;18.00;99.90;;;;;;5005674;28;20236;-72
2022/10/08 09:03:06;;;;;;;18.05;12.02;;;18.00;99.90;;;;;;5012710;28;20229;-72
2022/10/08 09:05:58;;;;;;;15.18;11.65;;;18.00;99.90;;;;;;5007903;28;20297;-72
2022/10/08 09:08:51;;;;;;;14.30;11.63;;;18.00;99.90;;;;;;5015620;28;20762;-72
2022/10/08 09:11:41;;;;;;;15.88;11.38;;;17.90;99.90;;;;;;5015412;28;20320;-70
2022/10/08 09:14:37;;;;;;;18.30;11.90;;;17.90;99.90;;;;;;5016764;28;20234;-72
2022/10/08 09:17:31;;;;;;;17.77;11.70;;;18.00;99.90;;;;;;5017649;28;20236;-72
2022/10/08 09:20:23;;;;;;;15.18;11.85;;;18.00;99.90;;;;;;5016545;28;20257;-72
2022/10/08 09:23:15;;;;;;;14.35;11.70;;;18.00;99.90;;;;;;5016282;28;20232;-75
2022/10/08 09:26:15;;;;;;;15.20;11.32;;;18.00;99.90;;;;;;5030802;28;20731;-74
2022/10/08 09:29:06;;;;;;;12.45;10.95;;;18.10;99.90;;;;;;5014505;28;20230;-75
2022/10/08 09:31:54;;;;;;;17.17;11.35;;;18.30;99.90;;;;;;5011281;28;20218;-74
2022/10/08 09:34:44;;;;;;;12.68;11.18;;;18.40;99.90;;;;;;5010755;28;20237;-74
2022/10/08 09:37:33;;;;;;;14.23;11.48;;;18.40;99.90;;;;;;5004404;28;20225;-74
2022/10/08 09:40:23;;;;;;;13.60;11.65;;;18.60;99.90;;;;;;5014053;28;20218;-75
2022/10/08 09:43:17;;;;;;;12.48;10.57;;;18.70;99.90;;;;;;5024331;28;20232;-75
2022/10/08 09:46:10;;;;;;;12.95;10.82;;;18.70;99.90;;;;;;5014992;28;20308;-74
2022/10/08 09:49:21;;;;;;;18.73;11.18;;;18.70;99.90;;;;;;5020523;28;20286;-75
2022/10/08 09:52:15;;;;;;;15.73;10.52;;;18.90;99.90;;;;;;4998944;28;20756;-75
2022/10/08 09:55:09;;;;;;;17.63;10.15;;;19.00;99.90;;;;;;5019196;28;20241;-73
2022/10/08 09:58:01;;;;;;;15.18;10.60;;;19.00;99.90;;;;;;5019923;28;20226;-75
2022/10/08 10:01:01;;;;;;;13.90;9.75;;;19.00;99.90;;;;;;5016499;28;20214;-74
2022/10/08 10:03:53;;;;;;;13.50;11.07;;;19.00;99.90;;;;;;5014440;28;20214;-73
2022/10/08 10:06:47;;;;;;;12.38;10.40;;;19.10;99.90;;;;;;5004319;28;20213;-73
2022/10/08 10:09:44;;;;;;;16.02;12.60;;;19.20;99.90;;;;;;5013981;28;20308;-74
2022/10/08 10:12:38;;;;;;;17.63;12.38;;;19.30;99.90;;;;;;5008940;28;20221;-74
2022/10/08 10:15:34;;;;;;;12.02;10.73;;;19.50;99.90;;;;;;5007661;28;20229;-75
2022/10/08 10:18:31;;;;;;;12.70;10.60;;;19.60;99.90;;;;;;5013981;28;20713;-74
2022/10/08 10:21:25;;;;;;;19.42;11.40;;;19.50;99.90;;;;;;5015248;28;20292;-75
2022/10/08 10:24:38;;;;;;;16.90;12.27;;;19.40;99.90;;;;;;5018567;28;20228;-75
2022/10/08 10:27:32;;;;;;;13.00;10.70;;;19.50;99.90;;;;;;5020539;28;20466;-75
2022/10/08 10:30:23;;;;;;;13.35;10.80;;;19.50;99.90;;;;;;4998276;28;20222;-75
2022/10/08 10:33:17;;;;;;;13.70;10.90;;;19.40;99.90;;;;;;5012839;28;20222;-74
2022/10/08 10:36:13;;;;;;;11.50;10.32;;;19.50;99.90;;;;;;5025056;28;20596;-75
2022/10/08 10:39:12;;;;;;;14.50;10.93;;;19.60;99.90;;;;;;5012962;28;20300;-75
2022/10/08 10:42:12;;;;;;;15.98;10.45;;;19.70;99.90;;;;;;5012341;28;20228;-76
2022/10/08 10:45:08;;;;;;;13.60;10.65;;;19.70;99.90;;;;;;5018183;28;20221;-74
2022/10/08 10:47:57;;;;;;;11.60;10.40;;;19.60;99.90;;;;;;5011161;28;20748;-75
2022/10/08 10:50:58;;;;;;;14.93;11.05;;;19.60;99.90;;;;;;5010501;28;20709;-72
2022/10/08 10:54:03;;;;;;;16.25;11.15;;;19.50;99.90;;;;;;5013485;28;20224;-72
2022/10/08 10:56:56;;;;;;;13.52;11.02;;;19.40;99.90;;;;;;5013459;28;20249;-74
2022/10/08 10:59:47;;;;;;;14.40;11.55;;;19.30;99.90;;;;;;5015028;28;20225;-74
2022/10/08 11:02:44;;;;;;;15.02;11.48;;;19.10;99.90;;;;;;4997740;28;20288;-74
2022/10/08 11:05:36;;;;;;;13.05;11.00;;;19.00;99.90;;;;;;5011355;28;20255;-74
2022/10/08 11:08:35;;;;;;;18.60;12.32;;;18.90;99.90;;;;;;5008771;28;20233;-74
2022/10/08 11:11:34;;;;;;;13.40;11.68;;;18.90;99.90;;;;;;5013852;28;20293;-74
2022/10/08 11:14:43;;;;;;;16.90;12.45;;;18.80;99.90;;;;;;5012908;28;20237;-74
2022/10/08 11:17:47;;;;;;;14.23;11.20;;;18.70;99.90;;;;;;5013577;28;20233;-71
2022/10/08 11:20:47;;;;;;;14.13;12.02;;;18.70;99.90;;;;;;5014026;28;20686;-71
2022/10/08 11:23:48;;;;;;;14.00;11.95;;;18.70;99.90;;;;;;5018485;28;20232;-71
2022/10/08 11:26:45;;;;;;;15.18;12.25;;;18.80;99.90;;;;;;5001597;28;20222;-73
2022/10/08 11:29:40;;;;;;;18.20;13.10;;;18.80;99.90;;;;;;5014057;28;20228;-75
2022/10/08 11:32:31;;;;;;;19.42;12.07;;;18.90;99.90;;;;;;5036112;28;20233;-74
2022/10/08 11:35:26;;;;;;;15.50;12.65;;;19.10;99.90;;;;;;5007339;28;20236;-74
2022/10/08 11:38:24;;;;;;;14.57;12.98;;;19.00;99.90;;;;;;5017372;28;20228;-75
2022/10/08 11:41:22;;;;;;;14.05;12.27;;;19.00;99.90;;;;;;5018102;28;20233;-74
2022/10/08 11:44:13;;;;;;;14.38;12.57;;;19.00;99.90;;;;;;5004415;28;20221;-74
2022/10/08 11:47:52;;;;;;;14.75;13.05;;;19.10;99.90;;;;;;5016631;28;20900;-72
2022/10/08 11:50:40;;;;;;;16.95;12.35;;;19.00;99.90;;;;;;4981108;28;20590;-73
2022/10/08 11:53:29;;;;;;;17.85;12.65;;;19.10;99.90;;;;;;5016456;28;20920;-72
2022/10/08 11:56:20;;;;;;;17.77;13.05;;;19.10;99.90;;;;;;5003250;28;20257;-73
2022/10/08 11:59:35;;;;;;;15.05;13.23;;;19.20;99.90;;;;;;5019219;28;20225;-72
2022/10/08 12:02:28;;;;;;;14.32;12.68;;;19.20;99.90;;;;;;5018639;28;20226;-74
2022/10/08 12:05:30;;;;;;;16.75;12.80;;;19.30;99.90;;;;;;5018324;28;20296;-73
2022/10/08 12:08:51;;;;;;;16.02;13.75;;;19.40;99.90;;;;;;5019385;28;20228;-74
2022/10/08 12:11:51;;;;;;;17.13;12.40;;;19.40;99.90;;;;;;5018682;28;20224;-75
2022/10/08 12:14:48;;;;;;;16.23;13.00;;;19.40;99.90;;;;;;5020362;28;21005;-75
2022/10/08 12:17:51;;;;;;;16.88;13.05;;;19.50;99.90;;;;;;5019005;28;20267;-73
2022/10/08 12:20:42;;;;;;;14.70;12.50;;;19.50;99.90;;;;;;5016376;28;20324;-73
2022/10/08 12:23:39;;;;;;;18.05;13.00;;;19.40;99.90;;;;;;5018785;28;20827;-75
2022/10/08 12:26:28;;;;;;;18.30;13.13;;;19.50;99.90;;;;;;5018699;28;20230;-75
2022/10/08 12:29:27;;;;;;;15.18;13.30;;;19.60;99.90;;;;;;5015735;28;20252;-75
2022/10/08 12:32:17;;;;;;;16.90;13.68;;;19.50;99.90;;;;;;5005813;28;20243;-76
2022/10/08 12:35:20;;;;;;;18.42;13.93;;;19.40;99.90;;;;;;5016107;28;20248;-74
2022/10/08 12:38:34;;;;;;;22.52;13.48;;;19.40;99.90;;;;;;5005848;28;20244;-74
2022/10/08 12:41:26;;;;;;;15.10;13.25;;;19.40;99.90;;;;;;5013142;28;20574;-73
2022/10/08 12:44:28;;;;;;;19.27;13.68;;;19.40;99.90;;;;;;5016294;28;20210;-74
2022/10/08 12:47:27;;;;;;;20.92;14.30;;;19.50;99.90;;;;;;5001600;28;20248;-74
2022/10/08 12:50:38;;;;;;;15.82;14.25;;;19.40;99.90;;;;;;5019193;28;20311;-74
2022/10/08 12:53:27;;;;;;;17.23;14.23;;;19.50;99.90;;;;;;5014819;28;20696;-74
2022/10/08 12:56:20;;;;;;;16.58;14.10;;;19.50;99.90;;;;;;5014948;28;20242;-74
2022/10/08 12:59:11;;;;;;;15.18;12.98;;;19.50;99.90;;;;;;5009522;28;20222;-75
2022/10/08 13:02:00;;;;;;;17.45;13.63;;;19.40;99.90;;;;;;5014252;28;20241;-75
2022/10/08 13:04:50;;;;;;;17.35;13.43;;;19.40;99.90;;;;;;5005983;28;20712;-74
2022/10/08 13:07:39;;;;;;;18.85;13.18;;;19.50;99.90;;;;;;5017027;28;20344;-74
2022/10/08 13:10:29;;;;;;;14.52;12.70;;;19.60;99.90;;;;;;5012075;28;20221;-75
2022/10/08 13:13:41;;;;;;;16.73;12.85;;;19.60;99.90;;;;;;5021668;28;20226;-74
2022/10/08 13:16:45;;;;;;;19.08;12.25;;;19.60;99.90;;;;;;5013873;28;20294;-74
2022/10/08 13:19:36;;;;;;;15.23;12.35;;;19.60;99.90;;;;;;5023507;28;20819;-75
2022/10/08 13:22:26;;;;;;;15.45;12.10;;;19.50;99.90;;;;;;5018914;28;20214;-74
2022/10/08 13:25:35;;;;;;;18.83;12.63;;;19.50;99.90;;;;;;5011770;28;20218;-73
2022/10/08 13:28:24;;;;;;;16.77;12.82;;;19.40;99.90;;;;;;5014327;28;20593;-74
2022/10/08 13:31:35;;;;;;;14.40;12.93;;;19.30;99.90;;;;;;5016563;28;20244;-74
2022/10/08 13:34:26;;;;;;;17.13;12.82;;;19.40;99.90;;;;;;5015171;28;20221;-74
2022/10/08 13:37:23;;;;;;;13.82;12.40;;;19.50;99.90;;;;;;5002581;28;20756;-76
2022/10/08 13:40:20;;;;;;;19.45;13.10;;;19.40;99.90;;;;;;5012533;28;20227;-74
2022/10/08 13:43:09;;;;;;;17.27;12.80;;;19.50;99.90;;;;;;5012619;28;20228;-74
2022/10/08 13:45:57;;;;;;;17.48;13.40;;;19.50;99.90;;;;;;5005967;28;20281;-74
2022/10/08 13:48:46;;;;;;;15.13;11.93;;;19.50;99.90;;;;;;5011320;28;20404;-75
2022/10/08 13:51:35;;;;;;;16.55;12.23;;;19.50;99.90;;;;;;5014971;28;20222;-75
2022/10/08 13:54:27;;;;;;;20.13;12.30;;;19.50;99.90;;;;;;5002276;28;20692;-75
2022/10/08 13:57:17;;;;;;;15.02;12.45;;;19.40;99.90;;;;;;5008771;28;20232;-76
2022/10/08 14:00:07;;;;;;;15.55;12.25;;;19.40;99.90;;;;;;5009744;28;20237;-77
2022/10/08 14:02:56;;;;;;;15.82;12.02;;;19.30;99.90;;;;;;5010841;28;20231;-76
2022/10/08 14:05:48;;;;;;;17.77;11.95;;;19.30;99.90;;;;;;5015566;28;20892;-75
2022/10/08 14:08:37;;;;;;;15.43;12.10;;;19.20;99.90;;;;;;5009225;28;20982;-74
2022/10/08 14:11:26;;;;;;;16.58;12.65;;;19.20;99.90;;;;;;5011684;28;20217;-73
2022/10/08 14:14:17;;;;;;;14.15;11.43;;;19.20;99.90;;;;;;5014203;28;20715;-73
2022/10/08 14:17:05;;;;;;;21.27;11.73;;;19.20;99.90;;;;;;5013786;28;20276;-73
2022/10/08 14:19:54;;;;;;;19.05;11.60;;;19.20;99.90;;;;;;4996218;28;20230;-73
2022/10/08 14:22:43;;;;;;;16.42;11.75;;;19.20;99.90;;;;;;5014640;28;20822;-74
2022/10/08 14:25:31;;;;;;;14.32;11.30;;;19.20;99.90;;;;;;5007835;28;20222;-75
2022/10/08 14:28:20;;;;;;;16.88;12.20;;;19.30;99.90;;;;;;5012381;28;21006;-74
2022/10/08 14:31:12;;;;;;;15.95;11.82;;;19.40;99.90;;;;;;5002315;28;20261;-74
2022/10/08 14:34:01;;;;;;;15.50;11.70;;;19.30;99.90;;;;;;5027347;28;20234;-75
2022/10/08 14:36:54;;;;;;;19.85;11.95;;;19.20;99.90;;;;;;5011275;28;20233;-79